sensor_id;sensor_type;location;lat;lon;timestamp;P1;durP1;ratioP1;P2;durP2;ratioP2
44139;SDS011;29803;51.048;4.686;2022-12-18T00:01:45;187.23;;;45.85;;
44139;SDS011;29803;51.048;4.686;2022-12-18T00:04:18;175.02;;;46.22;;
44139;SDS011;29803;51.048;4.686;2022-12-18T00:06:51;191.95;;;48.63;;
44139;SDS011;29803;51.048;4.686;2022-12-18T00:09:22;160.50;;;44.22;;
44139;SDS011;29803;51.048;4.686;2022-12-18T00:11:53;179.35;;;44.45;;
44139;SDS011;29803;51.048;4.686;2022-12-18T00:14:23;170.50;;;44.83;;
44139;SDS011;29803;51.048;4.686;2022-12-18T00:16:54;176.98;;;42.08;;
44139;SDS011;29803;51.048;4.686;2022-12-18T00:19:24;175.57;;;45.95;;
44139;SDS011;29803;51.048;4.686;2022-12-18T00:21:54;169.20;;;44.13;;
44139;SDS011;29803;51.048;4.686;2022-12-18T00:24:25;182.02;;;45.60;;
44139;SDS011;29803;51.048;4.686;2022-12-18T00:26:55;170.45;;;46.67;;
44139;SDS011;29803;51.048;4.686;2022-12-18T00:29:26;170.10;;;43.42;;
44139;SDS011;29803;51.048;4.686;2022-12-18T00:31:56;174.52;;;45.88;;
44139;SDS011;29803;51.048;4.686;2022-12-18T00:34:27;168.27;;;43.17;;
44139;SDS011;29803;51.048;4.686;2022-12-18T00:36:57;186.60;;;42.67;;
44139;SDS011;29803;51.048;4.686;2022-12-18T00:39:27;191.60;;;45.90;;
44139;SDS011;29803;51.048;4.686;2022-12-18T00:41:58;185.48;;;45.65;;
44139;SDS011;29803;51.048;4.686;2022-12-18T00:44:47;157.43;;;41.72;;
44139;SDS011;29803;51.048;4.686;2022-12-18T00:47:17;159.10;;;43.80;;
44139;SDS011;29803;51.048;4.686;2022-12-18T00:49:48;157.20;;;40.65;;
44139;SDS011;29803;51.048;4.686;2022-12-18T00:52:18;164.73;;;42.17;;
44139;SDS011;29803;51.048;4.686;2022-12-18T00:54:48;155.55;;;45.10;;
44139;SDS011;29803;51.048;4.686;2022-12-18T00:57:19;157.13;;;41.53;;
44139;SDS011;29803;51.048;4.686;2022-12-18T00:59:49;165.30;;;42.15;;
44139;SDS011;29803;51.048;4.686;2022-12-18T01:02:20;179.73;;;45.65;;
44139;SDS011;29803;51.048;4.686;2022-12-18T01:04:50;164.40;;;43.78;;
44139;SDS011;29803;51.048;4.686;2022-12-18T01:07:21;185.13;;;42.30;;
44139;SDS011;29803;51.048;4.686;2022-12-18T01:09:51;179.50;;;45.05;;
44139;SDS011;29803;51.048;4.686;2022-12-18T01:12:21;163.25;;;42.67;;
44139;SDS011;29803;51.048;4.686;2022-12-18T01:14:52;174.00;;;44.90;;
44139;SDS011;29803;51.048;4.686;2022-12-18T01:17:22;164.15;;;42.05;;
44139;SDS011;29803;51.048;4.686;2022-12-18T01:19:53;180.32;;;44.00;;
44139;SDS011;29803;51.048;4.686;2022-12-18T01:22:23;146.45;;;42.40;;
44139;SDS011;29803;51.048;4.686;2022-12-18T01:24:54;160.02;;;42.20;;
44139;SDS011;29803;51.048;4.686;2022-12-18T01:27:24;166.35;;;43.20;;
44139;SDS011;29803;51.048;4.686;2022-12-18T01:29:55;178.30;;;42.42;;
44139;SDS011;29803;51.048;4.686;2022-12-18T01:32:25;164.48;;;41.13;;
44139;SDS011;29803;51.048;4.686;2022-12-18T01:34:56;151.60;;;42.67;;
44139;SDS011;29803;51.048;4.686;2022-12-18T01:37:26;151.70;;;40.75;;
44139;SDS011;29803;51.048;4.686;2022-12-18T01:39:56;154.15;;;40.53;;
44139;SDS011;29803;51.048;4.686;2022-12-18T01:42:27;171.63;;;42.78;;
44139;SDS011;29803;51.048;4.686;2022-12-18T01:47:45;153.80;;;40.22;;
44139;SDS011;29803;51.048;4.686;2022-12-18T01:53:19;149.20;;;39.00;;
44139;SDS011;29803;51.048;4.686;2022-12-18T01:55:53;161.88;;;41.05;;
44139;SDS011;29803;51.048;4.686;2022-12-18T02:01:33;106.07;;;28.38;;
44139;SDS011;29803;51.048;4.686;2022-12-18T02:04:22;163.25;;;38.80;;
44139;SDS011;29803;51.048;4.686;2022-12-18T02:07:03;141.57;;;39.38;;
44139;SDS011;29803;51.048;4.686;2022-12-18T02:09:46;128.73;;;37.33;;
44139;SDS011;29803;51.048;4.686;2022-12-18T02:12:30;140.95;;;38.00;;
44139;SDS011;29803;51.048;4.686;2022-12-18T02:15:26;149.57;;;37.55;;
44139;SDS011;29803;51.048;4.686;2022-12-18T02:18:26;132.45;;;38.55;;
44139;SDS011;29803;51.048;4.686;2022-12-18T02:26:58;149.30;;;38.63;;
44139;SDS011;29803;51.048;4.686;2022-12-18T02:29:37;153.93;;;37.33;;
44139;SDS011;29803;51.048;4.686;2022-12-18T02:32:15;148.95;;;38.60;;
44139;SDS011;29803;51.048;4.686;2022-12-18T02:34:49;141.32;;;36.10;;
44139;SDS011;29803;51.048;4.686;2022-12-18T02:37:21;139.25;;;37.22;;
44139;SDS011;29803;51.048;4.686;2022-12-18T02:39:54;136.02;;;37.90;;
44139;SDS011;29803;51.048;4.686;2022-12-18T02:42:27;143.30;;;38.67;;
44139;SDS011;29803;51.048;4.686;2022-12-18T02:44:58;125.72;;;34.90;;
44139;SDS011;29803;51.048;4.686;2022-12-18T02:47:31;142.18;;;39.72;;
44139;SDS011;29803;51.048;4.686;2022-12-18T02:50:14;132.40;;;34.77;;
44139;SDS011;29803;51.048;4.686;2022-12-18T02:52:56;136.27;;;36.75;;
44139;SDS011;29803;51.048;4.686;2022-12-18T02:55:39;124.78;;;36.90;;
44139;SDS011;29803;51.048;4.686;2022-12-18T02:58:33;117.43;;;34.65;;
44139;SDS011;29803;51.048;4.686;2022-12-18T03:04:20;129.93;;;33.53;;
44139;SDS011;29803;51.048;4.686;2022-12-18T03:07:00;137.73;;;34.15;;
44139;SDS011;29803;51.048;4.686;2022-12-18T03:09:37;133.57;;;36.25;;
44139;SDS011;29803;51.048;4.686;2022-12-18T03:18:02;138.63;;;34.90;;
44139;SDS011;29803;51.048;4.686;2022-12-18T03:20:40;119.60;;;34.25;;
44139;SDS011;29803;51.048;4.686;2022-12-18T03:23:15;118.47;;;34.35;;
44139;SDS011;29803;51.048;4.686;2022-12-18T03:25:51;116.03;;;33.03;;
44139;SDS011;29803;51.048;4.686;2022-12-18T03:28:24;124.35;;;30.67;;
44139;SDS011;29803;51.048;4.686;2022-12-18T03:31:01;111.63;;;31.92;;
44139;SDS011;29803;51.048;4.686;2022-12-18T03:36:30;124.88;;;33.08;;
44139;SDS011;29803;51.048;4.686;2022-12-18T03:39:01;108.18;;;30.77;;
44139;SDS011;29803;51.048;4.686;2022-12-18T03:41:32;118.95;;;32.05;;
44139;SDS011;29803;51.048;4.686;2022-12-18T03:44:15;116.65;;;33.72;;
44139;SDS011;29803;51.048;4.686;2022-12-18T03:49:46;113.88;;;32.50;;
44139;SDS011;29803;51.048;4.686;2022-12-18T03:52:25;105.25;;;29.20;;
44139;SDS011;29803;51.048;4.686;2022-12-18T03:55:00;96.18;;;29.80;;
44139;SDS011;29803;51.048;4.686;2022-12-18T03:57:32;113.90;;;29.65;;
44139;SDS011;29803;51.048;4.686;2022-12-18T04:00:05;104.28;;;29.08;;
44139;SDS011;29803;51.048;4.686;2022-12-18T04:02:40;102.75;;;29.90;;
44139;SDS011;29803;51.048;4.686;2022-12-18T04:05:14;107.63;;;30.17;;
44139;SDS011;29803;51.048;4.686;2022-12-18T04:07:48;110.45;;;30.52;;
44139;SDS011;29803;51.048;4.686;2022-12-18T04:10:20;104.97;;;30.50;;
44139;SDS011;29803;51.048;4.686;2022-12-18T04:12:50;93.95;;;28.23;;
44139;SDS011;29803;51.048;4.686;2022-12-18T04:15:21;107.10;;;29.45;;
44139;SDS011;29803;51.048;4.686;2022-12-18T04:17:51;102.57;;;29.95;;
44139;SDS011;29803;51.048;4.686;2022-12-18T04:20:22;98.55;;;29.15;;
44139;SDS011;29803;51.048;4.686;2022-12-18T04:22:52;85.93;;;28.20;;
44139;SDS011;29803;51.048;4.686;2022-12-18T04:25:23;90.03;;;27.45;;
44139;SDS011;29803;51.048;4.686;2022-12-18T04:27:54;95.95;;;28.13;;
44139;SDS011;29803;51.048;4.686;2022-12-18T04:30:24;110.93;;;29.38;;
44139;SDS011;29803;51.048;4.686;2022-12-18T04:32:55;103.88;;;28.75;;
44139;SDS011;29803;51.048;4.686;2022-12-18T04:35:25;104.93;;;32.53;;
44139;SDS011;29803;51.048;4.686;2022-12-18T04:37:56;98.20;;;30.15;;
44139;SDS011;29803;51.048;4.686;2022-12-18T04:40:26;104.82;;;31.08;;
44139;SDS011;29803;51.048;4.686;2022-12-18T04:42:56;97.07;;;28.80;;
44139;SDS011;29803;51.048;4.686;2022-12-18T04:45:27;97.15;;;29.00;;
44139;SDS011;29803;51.048;4.686;2022-12-18T04:47:58;103.43;;;30.27;;
44139;SDS011;29803;51.048;4.686;2022-12-18T04:50:30;100.47;;;29.15;;
44139;SDS011;29803;51.048;4.686;2022-12-18T04:53:00;107.38;;;27.00;;
44139;SDS011;29803;51.048;4.686;2022-12-18T04:55:31;88.35;;;27.60;;
44139;SDS011;29803;51.048;4.686;2022-12-18T04:58:01;86.72;;;26.08;;
44139;SDS011;29803;51.048;4.686;2022-12-18T05:00:32;95.75;;;29.10;;
44139;SDS011;29803;51.048;4.686;2022-12-18T05:03:02;97.18;;;26.40;;
44139;SDS011;29803;51.048;4.686;2022-12-18T05:05:34;94.75;;;26.15;;
44139;SDS011;29803;51.048;4.686;2022-12-18T05:08:05;91.57;;;26.73;;
44139;SDS011;29803;51.048;4.686;2022-12-18T05:10:35;82.72;;;26.15;;
44139;SDS011;29803;51.048;4.686;2022-12-18T05:13:06;92.43;;;26.88;;
44139;SDS011;29803;51.048;4.686;2022-12-18T05:15:36;88.30;;;26.25;;
44139;SDS011;29803;51.048;4.686;2022-12-18T05:18:07;87.65;;;26.70;;
44139;SDS011;29803;51.048;4.686;2022-12-18T05:20:38;86.50;;;27.02;;
44139;SDS011;29803;51.048;4.686;2022-12-18T05:23:08;91.47;;;27.27;;
44139;SDS011;29803;51.048;4.686;2022-12-18T05:25:38;81.13;;;24.65;;
44139;SDS011;29803;51.048;4.686;2022-12-18T05:28:09;80.38;;;27.42;;
44139;SDS011;29803;51.048;4.686;2022-12-18T05:30:39;92.57;;;25.55;;
44139;SDS011;29803;51.048;4.686;2022-12-18T05:33:10;87.28;;;26.02;;
44139;SDS011;29803;51.048;4.686;2022-12-18T05:35:40;86.88;;;25.48;;
44139;SDS011;29803;51.048;4.686;2022-12-18T05:38:11;85.97;;;24.65;;
44139;SDS011;29803;51.048;4.686;2022-12-18T05:40:42;85.00;;;26.77;;
44139;SDS011;29803;51.048;4.686;2022-12-18T05:43:13;82.50;;;26.33;;
44139;SDS011;29803;51.048;4.686;2022-12-18T05:45:44;80.55;;;24.10;;
44139;SDS011;29803;51.048;4.686;2022-12-18T05:48:15;80.53;;;22.85;;
44139;SDS011;29803;51.048;4.686;2022-12-18T05:50:47;85.82;;;24.10;;
44139;SDS011;29803;51.048;4.686;2022-12-18T05:53:19;81.72;;;25.92;;
44139;SDS011;29803;51.048;4.686;2022-12-18T05:55:51;95.13;;;25.05;;
44139;SDS011;29803;51.048;4.686;2022-12-18T05:58:21;79.05;;;24.77;;
44139;SDS011;29803;51.048;4.686;2022-12-18T06:00:52;82.15;;;25.10;;
44139;SDS011;29803;51.048;4.686;2022-12-18T06:03:23;71.97;;;22.90;;
44139;SDS011;29803;51.048;4.686;2022-12-18T06:05:54;81.63;;;25.48;;
44139;SDS011;29803;51.048;4.686;2022-12-18T06:08:24;71.10;;;22.95;;
44139;SDS011;29803;51.048;4.686;2022-12-18T06:10:55;85.78;;;26.00;;
44139;SDS011;29803;51.048;4.686;2022-12-18T06:13:27;73.47;;;25.73;;
44139;SDS011;29803;51.048;4.686;2022-12-18T06:15:57;79.88;;;23.58;;
44139;SDS011;29803;51.048;4.686;2022-12-18T06:18:27;77.47;;;24.58;;
44139;SDS011;29803;51.048;4.686;2022-12-18T06:20:58;75.03;;;24.55;;
44139;SDS011;29803;51.048;4.686;2022-12-18T06:23:29;68.03;;;22.67;;
44139;SDS011;29803;51.048;4.686;2022-12-18T06:26:03;66.38;;;23.70;;
44139;SDS011;29803;51.048;4.686;2022-12-18T06:28:35;86.80;;;23.65;;
44139;SDS011;29803;51.048;4.686;2022-12-18T06:31:06;83.75;;;25.35;;
44139;SDS011;29803;51.048;4.686;2022-12-18T06:33:37;79.00;;;22.40;;
44139;SDS011;29803;51.048;4.686;2022-12-18T06:36:10;76.70;;;23.13;;
44139;SDS011;29803;51.048;4.686;2022-12-18T06:38:42;84.00;;;23.60;;
44139;SDS011;29803;51.048;4.686;2022-12-18T06:41:14;83.40;;;24.20;;
44139;SDS011;29803;51.048;4.686;2022-12-18T06:43:46;74.93;;;23.65;;
44139;SDS011;29803;51.048;4.686;2022-12-18T06:46:17;78.40;;;23.95;;
44139;SDS011;29803;51.048;4.686;2022-12-18T06:48:48;77.93;;;21.33;;
44139;SDS011;29803;51.048;4.686;2022-12-18T06:51:20;79.82;;;23.48;;
44139;SDS011;29803;51.048;4.686;2022-12-18T06:53:52;76.97;;;22.45;;
44139;SDS011;29803;51.048;4.686;2022-12-18T06:56:22;67.22;;;21.15;;
44139;SDS011;29803;51.048;4.686;2022-12-18T06:58:53;75.05;;;22.98;;
44139;SDS011;29803;51.048;4.686;2022-12-18T07:01:24;72.97;;;22.67;;
44139;SDS011;29803;51.048;4.686;2022-12-18T07:03:54;74.10;;;22.23;;
44139;SDS011;29803;51.048;4.686;2022-12-18T07:06:26;64.75;;;19.48;;
44139;SDS011;29803;51.048;4.686;2022-12-18T07:08:57;70.85;;;22.30;;
44139;SDS011;29803;51.048;4.686;2022-12-18T07:11:27;63.80;;;21.08;;
44139;SDS011;29803;51.048;4.686;2022-12-18T07:13:58;79.07;;;23.55;;
44139;SDS011;29803;51.048;4.686;2022-12-18T07:16:28;74.50;;;23.58;;
44139;SDS011;29803;51.048;4.686;2022-12-18T07:18:59;67.72;;;21.25;;
44139;SDS011;29803;51.048;4.686;2022-12-18T07:21:29;68.90;;;21.63;;
44139;SDS011;29803;51.048;4.686;2022-12-18T07:23:59;59.45;;;19.55;;
44139;SDS011;29803;51.048;4.686;2022-12-18T07:26:30;69.75;;;22.00;;
44139;SDS011;29803;51.048;4.686;2022-12-18T07:29:00;63.55;;;21.00;;
44139;SDS011;29803;51.048;4.686;2022-12-18T07:31:31;63.88;;;20.85;;
44139;SDS011;29803;51.048;4.686;2022-12-18T07:34:01;68.07;;;21.63;;
44139;SDS011;29803;51.048;4.686;2022-12-18T07:36:32;74.35;;;22.83;;
44139;SDS011;29803;51.048;4.686;2022-12-18T07:39:02;67.13;;;21.77;;
44139;SDS011;29803;51.048;4.686;2022-12-18T07:41:33;65.93;;;22.35;;
44139;SDS011;29803;51.048;4.686;2022-12-18T07:44:03;63.08;;;21.73;;
44139;SDS011;29803;51.048;4.686;2022-12-18T07:46:34;66.43;;;21.48;;
44139;SDS011;29803;51.048;4.686;2022-12-18T07:49:04;66.53;;;21.52;;
44139;SDS011;29803;51.048;4.686;2022-12-18T07:51:35;63.28;;;21.00;;
44139;SDS011;29803;51.048;4.686;2022-12-18T07:54:05;67.90;;;21.30;;
44139;SDS011;29803;51.048;4.686;2022-12-18T07:56:36;63.75;;;21.48;;
44139;SDS011;29803;51.048;4.686;2022-12-18T07:59:06;58.58;;;20.63;;
44139;SDS011;29803;51.048;4.686;2022-12-18T08:01:37;59.95;;;20.00;;
44139;SDS011;29803;51.048;4.686;2022-12-18T08:04:07;57.30;;;18.90;;
44139;SDS011;29803;51.048;4.686;2022-12-18T08:06:38;59.20;;;20.63;;
44139;SDS011;29803;51.048;4.686;2022-12-18T08:09:09;68.70;;;22.45;;
44139;SDS011;29803;51.048;4.686;2022-12-18T08:11:40;61.65;;;20.77;;
44139;SDS011;29803;51.048;4.686;2022-12-18T08:14:10;59.50;;;19.73;;
44139;SDS011;29803;51.048;4.686;2022-12-18T08:16:40;55.28;;;20.92;;
44139;SDS011;29803;51.048;4.686;2022-12-18T08:19:11;53.55;;;20.58;;
44139;SDS011;29803;51.048;4.686;2022-12-18T08:21:42;61.10;;;21.05;;
44139;SDS011;29803;51.048;4.686;2022-12-18T08:24:12;64.03;;;22.35;;
44139;SDS011;29803;51.048;4.686;2022-12-18T08:26:43;61.53;;;22.55;;
44139;SDS011;29803;51.048;4.686;2022-12-18T08:29:13;59.30;;;23.70;;
44139;SDS011;29803;51.048;4.686;2022-12-18T08:31:44;61.25;;;22.98;;
44139;SDS011;29803;51.048;4.686;2022-12-18T08:34:14;45.88;;;19.10;;
44139;SDS011;29803;51.048;4.686;2022-12-18T08:36:45;50.75;;;19.95;;
44139;SDS011;29803;51.048;4.686;2022-12-18T08:39:15;55.75;;;19.67;;
44139;SDS011;29803;51.048;4.686;2022-12-18T08:41:46;50.33;;;18.92;;
44139;SDS011;29803;51.048;4.686;2022-12-18T08:44:36;48.30;;;18.20;;
44139;SDS011;29803;51.048;4.686;2022-12-18T08:47:09;57.00;;;20.10;;
44139;SDS011;29803;51.048;4.686;2022-12-18T08:49:40;48.00;;;17.45;;
44139;SDS011;29803;51.048;4.686;2022-12-18T08:52:10;41.17;;;17.42;;
44139;SDS011;29803;51.048;4.686;2022-12-18T08:54:41;54.28;;;19.60;;
44139;SDS011;29803;51.048;4.686;2022-12-18T08:57:11;55.40;;;18.15;;
44139;SDS011;29803;51.048;4.686;2022-12-18T08:59:42;54.08;;;16.92;;
44139;SDS011;29803;51.048;4.686;2022-12-18T09:02:12;46.80;;;16.75;;
44139;SDS011;29803;51.048;4.686;2022-12-18T09:04:42;51.50;;;18.75;;
44139;SDS011;29803;51.048;4.686;2022-12-18T09:07:13;44.95;;;17.63;;
44139;SDS011;29803;51.048;4.686;2022-12-18T09:09:44;59.15;;;18.50;;
44139;SDS011;29803;51.048;4.686;2022-12-18T09:12:14;43.03;;;16.73;;
44139;SDS011;29803;51.048;4.686;2022-12-18T09:14:45;51.28;;;18.55;;
44139;SDS011;29803;51.048;4.686;2022-12-18T09:17:15;47.88;;;17.35;;
44139;SDS011;29803;51.048;4.686;2022-12-18T09:19:46;43.85;;;16.80;;
44139;SDS011;29803;51.048;4.686;2022-12-18T09:22:16;43.10;;;17.02;;
44139;SDS011;29803;51.048;4.686;2022-12-18T09:24:48;40.47;;;16.17;;
44139;SDS011;29803;51.048;4.686;2022-12-18T09:27:18;45.55;;;17.60;;
44139;SDS011;29803;51.048;4.686;2022-12-18T09:29:49;42.92;;;16.85;;
44139;SDS011;29803;51.048;4.686;2022-12-18T09:32:19;42.88;;;17.08;;
44139;SDS011;29803;51.048;4.686;2022-12-18T09:34:50;45.50;;;18.17;;
44139;SDS011;29803;51.048;4.686;2022-12-18T09:37:20;47.67;;;18.48;;
44139;SDS011;29803;51.048;4.686;2022-12-18T09:39:51;46.35;;;17.58;;
44139;SDS011;29803;51.048;4.686;2022-12-18T09:42:21;57.38;;;18.23;;
44139;SDS011;29803;51.048;4.686;2022-12-18T09:44:53;41.38;;;16.70;;
44139;SDS011;29803;51.048;4.686;2022-12-18T09:47:25;41.22;;;17.20;;
44139;SDS011;29803;51.048;4.686;2022-12-18T09:50:23;50.33;;;17.83;;
44139;SDS011;29803;51.048;4.686;2022-12-18T09:53:02;41.50;;;16.88;;
44139;SDS011;29803;51.048;4.686;2022-12-18T09:55:41;40.70;;;17.05;;
44139;SDS011;29803;51.048;4.686;2022-12-18T09:58:24;47.08;;;18.40;;
44139;SDS011;29803;51.048;4.686;2022-12-18T10:00:57;45.13;;;17.70;;
44139;SDS011;29803;51.048;4.686;2022-12-18T10:03:27;41.03;;;17.08;;
44139;SDS011;29803;51.048;4.686;2022-12-18T10:06:02;44.50;;;18.20;;
44139;SDS011;29803;51.048;4.686;2022-12-18T10:19:41;38.53;;;16.67;;
44139;SDS011;29803;51.048;4.686;2022-12-18T10:24:59;43.53;;;17.90;;
44139;SDS011;29803;51.048;4.686;2022-12-18T10:27:35;40.35;;;16.52;;
44139;SDS011;29803;51.048;4.686;2022-12-18T10:30:13;45.42;;;19.02;;
44139;SDS011;29803;51.048;4.686;2022-12-18T10:32:46;41.92;;;18.05;;
44139;SDS011;29803;51.048;4.686;2022-12-18T10:35:21;46.30;;;18.70;;
44139;SDS011;29803;51.048;4.686;2022-12-18T10:38:01;51.13;;;19.23;;
44139;SDS011;29803;51.048;4.686;2022-12-18T10:43:34;45.55;;;18.67;;
44139;SDS011;29803;51.048;4.686;2022-12-18T10:48:40;54.97;;;19.35;;
44139;SDS011;29803;51.048;4.686;2022-12-18T10:51:35;41.88;;;18.23;;
44139;SDS011;29803;51.048;4.686;2022-12-18T10:54:17;50.33;;;18.58;;
44139;SDS011;29803;51.048;4.686;2022-12-18T10:56:51;46.45;;;18.15;;
44139;SDS011;29803;51.048;4.686;2022-12-18T10:59:21;44.08;;;17.73;;
44139;SDS011;29803;51.048;4.686;2022-12-18T11:01:56;48.83;;;18.35;;
44139;SDS011;29803;51.048;4.686;2022-12-18T11:04:28;47.10;;;18.63;;
44139;SDS011;29803;51.048;4.686;2022-12-18T11:07:05;43.85;;;18.88;;
44139;SDS011;29803;51.048;4.686;2022-12-18T11:09:38;42.58;;;17.88;;
44139;SDS011;29803;51.048;4.686;2022-12-18T11:14:44;42.38;;;16.98;;
44139;SDS011;29803;51.048;4.686;2022-12-18T11:17:39;49.22;;;18.40;;
44139;SDS011;29803;51.048;4.686;2022-12-18T11:20:23;37.92;;;16.80;;
44139;SDS011;29803;51.048;4.686;2022-12-18T11:23:05;46.38;;;18.20;;
44139;SDS011;29803;51.048;4.686;2022-12-18T11:25:50;42.25;;;17.45;;
44139;SDS011;29803;51.048;4.686;2022-12-18T11:34:03;46.00;;;19.50;;
44139;SDS011;29803;51.048;4.686;2022-12-18T11:36:44;42.67;;;17.73;;
44139;SDS011;29803;51.048;4.686;2022-12-18T11:42:27;39.30;;;17.80;;
44139;SDS011;29803;51.048;4.686;2022-12-18T11:51:13;40.35;;;17.63;;
44139;SDS011;29803;51.048;4.686;2022-12-18T11:53:41;47.47;;;18.33;;
44139;SDS011;29803;51.048;4.686;2022-12-18T12:01:59;52.08;;;17.90;;
44139;SDS011;29803;51.048;4.686;2022-12-18T12:07:48;44.72;;;18.65;;
44139;SDS011;29803;51.048;4.686;2022-12-18T12:10:51;45.40;;;17.33;;
44139;SDS011;29803;51.048;4.686;2022-12-18T12:21:40;44.22;;;18.67;;
44139;SDS011;29803;51.048;4.686;2022-12-18T12:24:35;41.75;;;19.02;;
44139;SDS011;29803;51.048;4.686;2022-12-18T12:33:05;39.58;;;18.75;;
44139;SDS011;29803;51.048;4.686;2022-12-18T12:35:46;47.15;;;19.60;;
44139;SDS011;29803;51.048;4.686;2022-12-18T12:38:29;43.63;;;18.15;;
44139;SDS011;29803;51.048;4.686;2022-12-18T12:41:05;43.78;;;19.70;;
44139;SDS011;29803;51.048;4.686;2022-12-18T12:44:00;42.53;;;19.23;;
44139;SDS011;29803;51.048;4.686;2022-12-18T12:46:36;43.15;;;20.40;;
44139;SDS011;29803;51.048;4.686;2022-12-18T12:49:13;44.38;;;20.05;;
44139;SDS011;29803;51.048;4.686;2022-12-18T12:51:50;46.78;;;21.17;;
44139;SDS011;29803;51.048;4.686;2022-12-18T12:54:28;49.28;;;21.02;;
44139;SDS011;29803;51.048;4.686;2022-12-18T12:57:04;48.78;;;21.92;;
44139;SDS011;29803;51.048;4.686;2022-12-18T13:02:52;50.22;;;22.10;;
44139;SDS011;29803;51.048;4.686;2022-12-18T13:05:53;49.88;;;22.73;;
44139;SDS011;29803;51.048;4.686;2022-12-18T13:08:29;53.30;;;21.70;;
44139;SDS011;29803;51.048;4.686;2022-12-18T13:11:01;47.20;;;21.00;;
44139;SDS011;29803;51.048;4.686;2022-12-18T13:13:51;47.08;;;20.15;;
44139;SDS011;29803;51.048;4.686;2022-12-18T13:16:24;66.28;;;23.42;;
44139;SDS011;29803;51.048;4.686;2022-12-18T13:18:57;57.55;;;22.55;;
44139;SDS011;29803;51.048;4.686;2022-12-18T13:21:29;73.78;;;24.35;;
44139;SDS011;29803;51.048;4.686;2022-12-18T13:24:16;58.88;;;23.08;;
44139;SDS011;29803;51.048;4.686;2022-12-18T13:27:00;50.33;;;22.73;;
44139;SDS011;29803;51.048;4.686;2022-12-18T13:38:20;53.20;;;23.25;;
44139;SDS011;29803;51.048;4.686;2022-12-18T13:43:52;48.63;;;22.00;;
44139;SDS011;29803;51.048;4.686;2022-12-18T13:46:44;56.50;;;24.15;;
44139;SDS011;29803;51.048;4.686;2022-12-18T13:52:17;55.53;;;22.77;;
44139;SDS011;29803;51.048;4.686;2022-12-18T13:54:52;58.00;;;24.65;;
44139;SDS011;29803;51.048;4.686;2022-12-18T14:00:19;50.28;;;24.10;;
44139;SDS011;29803;51.048;4.686;2022-12-18T14:02:57;53.53;;;23.05;;
44139;SDS011;29803;51.048;4.686;2022-12-18T14:05:29;59.90;;;24.48;;
44139;SDS011;29803;51.048;4.686;2022-12-18T14:08:03;54.97;;;24.60;;
44139;SDS011;29803;51.048;4.686;2022-12-18T14:10:39;47.33;;;23.30;;
44139;SDS011;29803;51.048;4.686;2022-12-18T14:13:15;64.63;;;25.10;;
44139;SDS011;29803;51.048;4.686;2022-12-18T14:15:51;57.30;;;24.50;;
44139;SDS011;29803;51.048;4.686;2022-12-18T14:21:21;58.33;;;26.48;;
44139;SDS011;29803;51.048;4.686;2022-12-18T14:24:14;57.83;;;25.77;;
44139;SDS011;29803;51.048;4.686;2022-12-18T14:26:50;62.75;;;26.25;;
44139;SDS011;29803;51.048;4.686;2022-12-18T14:29:25;54.88;;;25.77;;
44139;SDS011;29803;51.048;4.686;2022-12-18T14:32:11;59.30;;;25.25;;
44139;SDS011;29803;51.048;4.686;2022-12-18T14:34:50;58.42;;;25.30;;
44139;SDS011;29803;51.048;4.686;2022-12-18T14:37:25;58.97;;;25.27;;
44139;SDS011;29803;51.048;4.686;2022-12-18T14:40:01;57.50;;;25.33;;
44139;SDS011;29803;51.048;4.686;2022-12-18T14:42:34;63.45;;;27.58;;
44139;SDS011;29803;51.048;4.686;2022-12-18T14:48:17;63.38;;;28.30;;
44139;SDS011;29803;51.048;4.686;2022-12-18T14:51:02;70.10;;;30.98;;
44139;SDS011;29803;51.048;4.686;2022-12-18T14:53:36;68.60;;;30.25;;
44139;SDS011;29803;51.048;4.686;2022-12-18T14:56:12;67.55;;;29.05;;
44139;SDS011;29803;51.048;4.686;2022-12-18T14:58:50;72.50;;;30.38;;
44139;SDS011;29803;51.048;4.686;2022-12-18T15:01:36;67.15;;;29.38;;
44139;SDS011;29803;51.048;4.686;2022-12-18T15:04:23;69.80;;;29.25;;
44139;SDS011;29803;51.048;4.686;2022-12-18T15:07:03;75.57;;;32.75;;
44139;SDS011;29803;51.048;4.686;2022-12-18T15:09:33;70.03;;;31.33;;
44139;SDS011;29803;51.048;4.686;2022-12-18T15:12:04;76.40;;;31.48;;
44139;SDS011;29803;51.048;4.686;2022-12-18T15:14:39;76.80;;;31.80;;
44139;SDS011;29803;51.048;4.686;2022-12-18T15:17:20;75.82;;;31.02;;
44139;SDS011;29803;51.048;4.686;2022-12-18T15:19:53;78.63;;;31.38;;
44139;SDS011;29803;51.048;4.686;2022-12-18T15:22:32;76.28;;;30.33;;
44139;SDS011;29803;51.048;4.686;2022-12-18T15:25:20;72.18;;;29.42;;
44139;SDS011;29803;51.048;4.686;2022-12-18T15:28:01;73.68;;;29.33;;
44139;SDS011;29803;51.048;4.686;2022-12-18T15:30:32;70.20;;;28.98;;
44139;SDS011;29803;51.048;4.686;2022-12-18T15:33:16;73.15;;;29.58;;
44139;SDS011;29803;51.048;4.686;2022-12-18T15:35:57;69.78;;;29.73;;
44139;SDS011;29803;51.048;4.686;2022-12-18T15:38:28;73.25;;;28.90;;
44139;SDS011;29803;51.048;4.686;2022-12-18T15:40:59;71.55;;;29.70;;
44139;SDS011;29803;51.048;4.686;2022-12-18T15:43:30;71.43;;;29.02;;
44139;SDS011;29803;51.048;4.686;2022-12-18T15:46:05;74.30;;;27.92;;
44139;SDS011;29803;51.048;4.686;2022-12-18T15:48:41;67.40;;;26.63;;
44139;SDS011;29803;51.048;4.686;2022-12-18T15:53:48;73.72;;;26.38;;
44139;SDS011;29803;51.048;4.686;2022-12-18T15:56:23;69.32;;;27.67;;
44139;SDS011;29803;51.048;4.686;2022-12-18T15:59:16;65.05;;;26.73;;
44139;SDS011;29803;51.048;4.686;2022-12-18T16:01:48;75.53;;;27.55;;
44139;SDS011;29803;51.048;4.686;2022-12-18T16:04:21;67.15;;;26.38;;
44139;SDS011;29803;51.048;4.686;2022-12-18T16:06:53;66.95;;;27.55;;
44139;SDS011;29803;51.048;4.686;2022-12-18T16:09:23;71.45;;;25.63;;
44139;SDS011;29803;51.048;4.686;2022-12-18T16:11:54;62.72;;;25.30;;
44139;SDS011;29803;51.048;4.686;2022-12-18T16:14:25;60.65;;;24.50;;
44139;SDS011;29803;51.048;4.686;2022-12-18T16:17:02;62.35;;;24.77;;
44139;SDS011;29803;51.048;4.686;2022-12-18T16:19:35;57.88;;;23.70;;
44139;SDS011;29803;51.048;4.686;2022-12-18T16:22:05;65.30;;;23.92;;
44139;SDS011;29803;51.048;4.686;2022-12-18T16:24:43;65.53;;;26.05;;
44139;SDS011;29803;51.048;4.686;2022-12-18T16:27:13;66.50;;;23.35;;
44139;SDS011;29803;51.048;4.686;2022-12-18T16:29:44;64.07;;;23.42;;
44139;SDS011;29803;51.048;4.686;2022-12-18T16:32:16;59.88;;;23.67;;
44139;SDS011;29803;51.048;4.686;2022-12-18T16:34:49;61.08;;;23.90;;
44139;SDS011;29803;51.048;4.686;2022-12-18T16:37:19;61.08;;;23.95;;
44139;SDS011;29803;51.048;4.686;2022-12-18T16:39:50;56.85;;;23.02;;
44139;SDS011;29803;51.048;4.686;2022-12-18T16:42:20;63.70;;;23.08;;
44139;SDS011;29803;51.048;4.686;2022-12-18T16:44:51;54.50;;;22.65;;
44139;SDS011;29803;51.048;4.686;2022-12-18T16:47:21;62.88;;;23.75;;
44139;SDS011;29803;51.048;4.686;2022-12-18T16:49:52;63.67;;;24.92;;
44139;SDS011;29803;51.048;4.686;2022-12-18T16:52:22;55.70;;;21.70;;
44139;SDS011;29803;51.048;4.686;2022-12-18T16:54:53;63.95;;;23.75;;
44139;SDS011;29803;51.048;4.686;2022-12-18T16:57:23;61.78;;;21.38;;